メインページ
METAR-TAF:

METAR-TAF

空港 :

アスンシオン, パラグアイ

シルビオ・ペッティロッシ国際空港

緯度: 25-16S, 経度: 057-38W, 海抜: 101m

現時点の気象観測

当レポートは25分前の21:00(UTC)に作成
東/北東の風 5kt
気温 29°C
湿度 62%
気圧 1006 hPa
視程10km以上
高度3300ftの雲は散在している
高度7000ftの千切れ雲あり

METAR: SGAS 202100Z 07005KT 9999 SCT033 BKN070 29/21 Q1006

時間: 18:25 (21:25 UTC)

予報

当レポートは5時間11分前の16:14(UTC)に作成
予報は20日の 18時(UTC)から 21日の 18時(UTC)まで有効
の風 10kt
視程10km以上
高度2700ftの雲は散在している
確率 40%
20日の 20時(UTC)から 20日の 23時(UTC)まで
北東の風 12kt
視程: 8000m
高度2000ftの千切れ雲あり
高度4000ftの雲はほとんどない, 積乱雲.
激しい雷雨, 雨
21日の 02時(UTC)から 21日の 05時(UTC)まで徐々に
変向風 5kt
視程10km以上
高度1500ftの千切れ雲あり
確率 40%
21日の 10時(UTC)から 21日の 12時(UTC)まで
南/南西の風 12kt
視程: 5000m
高度1500ftの千切れ雲あり
高度4000ftの雲はほとんどない, 積乱雲.
激しい雷雨, 雨

TAF: SGAS 201614Z 2018/2118 08010KT 9999 SCT027 TX30/2018Z TN19/2110Z PROB40 2020/2023 04012KT 8000 TSRA BKN020 FEW040CB BECMG 2102/2105 VRB05KT 9999 BKN015 PROB40 2110/2112 21012KT 5000 TSRA BKN015 FEW040CB

4,000以上の空港の気象観測と天気予報(METAR報とTAF報)

利用可能な観測所は地図上に黄色い丸と赤い丸で示す。

丸の上にカーソルを重ねると観測所名を参照できる。

次にクリックすると気象観測と天気予報を参照できる。

マップの切り替え:黒色「×」印の緑ボタンをクリックして拡大、「-」印の緑ボタンをクリックして縮小、緑色の三角印をクリックして隣りの地図に切り替え


METAR-TAF: